Time;durP1;ratioP1;P1;durP2;ratioP2;P2;SDS_P1;SDS_P2;PMS_P1;PMS_P2;Temp;Humidity;BMP_temperature;BMP_pressure;BME280_temperature;BME280_humidity;BME280_pressure;Samples;Min_cycle;Max_cycle;Signal;HPM_P1;HPM_P2
2023/02/19 00:00:04;;;;;;;15.90;10.00;;;;;;;11.41;57.30;100941.12;106944;1272;25366;-60
2023/02/19 00:02:40;;;;;;;13.00;10.30;;;;;;;11.39;57.34;100933.15;107125;1271;24467;-58
2023/02/19 00:05:09;;;;;;;10.30;9.20;;;;;;;11.39;57.31;100933.16;106828;1275;25256;-59
2023/02/19 00:07:38;;;;;;;9.60;8.30;;;;;;;11.37;57.27;100930.95;107067;1272;25383;-59
2023/02/19 00:10:07;;;;;;;10.50;8.60;;;;;;;11.36;57.31;100931.50;107085;1269;25348;-58
2023/02/19 00:12:36;;;;;;;9.60;8.60;;;;;;;11.35;57.38;100928.05;107170;1267;26496;-59
2023/02/19 00:15:06;;;;;;;10.90;8.50;;;;;;;11.35;57.33;100920.58;106863;1272;25324;-59
2023/02/19 00:17:34;;;;;;;9.10;8.20;;;;;;;11.44;57.06;100916.20;107015;1269;24502;-59
2023/02/19 00:20:05;;;;;;;10.50;9.20;;;;;;;11.47;56.86;100910.57;107102;1266;25402;-59
2023/02/19 00:22:35;;;;;;;9.90;8.60;;;;;;;11.48;56.81;100906.73;107109;1266;25372;-59
2023/02/19 00:25:04;;;;;;;11.40;9.40;;;;;;;11.49;56.66;100903.59;107093;1267;24289;-59
2023/02/19 00:27:32;;;;;;;13.40;10.20;;;;;;;11.49;56.73;100897.85;106798;1274;24206;-59
2023/02/19 00:30:01;;;;;;;14.50;9.40;;;;;;;11.42;56.92;100892.28;106997;1270;22534;-59
2023/02/19 00:32:31;;;;;;;13.50;9.30;;;;;;;11.40;56.91;100891.27;107140;1273;25334;-59
2023/02/19 00:35:01;;;;;;;12.30;9.90;;;;;;;11.51;56.60;100888.78;107101;1270;25345;-59
2023/02/19 00:37:32;;;;;;;14.40;10.10;;;;;;;11.53;56.49;100884.39;107181;1267;25343;-59
2023/02/19 00:40:01;;;;;;;11.80;10.20;;;;;;;11.49;56.63;100871.62;106878;1272;25335;-59
2023/02/19 00:42:29;;;;;;;13.30;10.20;;;;;;;11.36;57.11;100865.14;107080;1267;24246;-59
2023/02/19 00:44:59;;;;;;;13.90;9.80;;;;;;;11.32;57.06;100862.10;107115;1266;25420;-59
2023/02/19 00:47:28;;;;;;;11.60;10.40;;;;;;;11.29;57.34;100850.36;106825;1267;22572;-60
2023/02/19 00:49:56;;;;;;;11.80;10.00;;;;;;;11.25;57.48;100847.16;107143;1274;25359;-59
2023/02/19 00:52:25;;;;;;;12.90;10.60;;;;;;;11.21;57.67;100854.02;106881;1273;25415;-59
2023/02/19 00:54:56;;;;;;;11.50;9.70;;;;;;;11.18;57.70;100847.68;106785;1272;25350;-60
2023/02/19 00:57:25;;;;;;;12.10;9.40;;;;;;;11.13;57.83;100849.00;107005;1274;25389;-60
2023/02/19 00:59:55;;;;;;;13.10;9.40;;;;;;;11.09;57.95;100852.05;107138;1253;25356;-60
2023/02/19 01:02:25;;;;;;;12.20;9.10;;;;;;;11.04;58.25;100843.83;107174;1272;25335;-60
2023/02/19 01:04:56;;;;;;;11.50;8.80;;;;;;;11.02;58.65;100842.83;107064;1272;25403;-60
2023/02/19 01:07:25;;;;;;;10.40;9.40;;;;;;;11.02;58.69;100842.14;107077;1270;25334;-60
2023/02/19 01:09:53;;;;;;;12.20;10.00;;;;;;;11.02;58.79;100844.75;107011;1267;24283;-59
2023/02/19 01:12:23;;;;;;;14.90;9.50;;;;;;;11.01;58.95;100842.52;107158;1273;22532;-59
2023/02/19 01:14:52;;;;;;;16.30;9.60;;;;;;;10.99;58.99;100844.98;106854;1270;24389;-60
2023/02/19 01:17:22;;;;;;;13.40;8.70;;;;;;;10.97;59.34;100845.55;107156;1267;25370;-60
2023/02/19 01:19:51;;;;;;;11.70;9.50;;;;;;;10.98;59.52;100849.35;107074;1270;25344;-59
2023/02/19 01:22:20;;;;;;;17.60;11.00;;;;;;;10.99;59.68;100851.58;107083;1267;25353;-59
2023/02/19 01:24:48;;;;;;;15.30;10.20;;;;;;;10.99;59.80;100847.41;107170;1267;26557;-60
2023/02/19 01:27:17;;;;;;;14.00;9.60;;;;;;;10.99;59.82;100844.63;107186;1267;25378;-60
2023/02/19 01:29:48;;;;;;;18.50;10.70;;;;;;;10.99;60.03;100842.03;107092;1267;23229;-60
2023/02/19 01:32:17;;;;;;;21.00;9.50;;;;;;;10.98;60.32;100840.31;107072;1270;25350;-60
2023/02/19 01:34:45;;;;;;;19.90;10.90;;;;;;;11.00;60.44;100841.31;106522;1271;25421;-60
2023/02/19 01:37:14;;;;;;;14.60;9.90;;;;;;;11.02;60.48;100843.36;107169;1267;25360;-59
2023/02/19 01:39:43;;;;;;;19.50;10.80;;;;;;;11.05;60.47;100838.43;106858;1274;25350;-59
2023/02/19 01:42:13;;;;;;;15.30;9.10;;;;;;;11.05;60.32;100840.68;106978;1269;25349;-59
2023/02/19 01:44:41;;;;;;;18.30;9.80;;;;;;;11.00;60.38;100843.23;107002;1270;26502;-59
2023/02/19 01:47:10;;;;;;;15.10;9.70;;;;;;;10.93;60.75;100839.56;107165;1266;25405;-59
2023/02/19 01:49:47;;;;;;;15.10;9.50;;;;;;;10.85;61.23;100845.28;107106;1274;23892;-60
2023/02/19 01:52:31;;;;;;;14.00;9.10;;;;;;;10.80;61.54;100841.58;106999;1270;24339;-59
2023/02/19 01:55:01;;;;;;;10.90;9.40;;;;;;;10.74;61.74;100848.84;107067;1267;22556;-59
2023/02/19 01:57:32;;;;;;;14.70;8.80;;;;;;;10.67;61.87;100847.58;107004;1267;23513;-59
2023/02/19 02:00:04;;;;;;;13.60;9.80;;;;;;;10.59;61.81;100840.98;106895;1266;25350;-59
2023/02/19 02:02:42;;;;;;;13.70;9.30;;;;;;;10.50;62.19;100838.58;107168;1267;25322;-59
2023/02/19 02:05:17;;;;;;;13.50;9.50;;;;;;;10.43;62.58;100838.35;106881;1274;22540;-59
2023/02/19 02:10:33;;;;;;;11.90;10.10;;;;;;;10.41;62.88;100853.31;107103;1273;25420;-59
2023/02/19 02:13:07;;;;;;;12.20;9.70;;;;;;;10.39;62.98;100847.27;107153;1269;25350;-59
2023/02/19 02:16:11;;;;;;;11.90;9.30;;;;;;;10.36;63.04;100843.35;107077;1267;25239;-59
2023/02/19 02:19:23;;;;;;;12.60;10.50;;;;;;;10.32;63.45;100843.11;106371;1275;25797;-58
2023/02/19 02:22:03;;;;;;;14.60;10.40;;;;;;;10.36;63.77;100839.89;106361;1276;25613;-59
2023/02/19 02:24:47;;;;;;;16.60;11.80;;;;;;;10.40;63.70;100839.63;106190;1283;22553;-60
2023/02/19 02:27:53;;;;;;;14.30;10.60;;;;;;;10.43;63.81;100835.93;105616;1279;1002955;-60
2023/02/19 02:30:35;;;;;;;18.10;11.20;;;;;;;10.45;63.85;100830.51;106313;1282;24348;-60
2023/02/19 02:33:38;;;;;;;12.60;10.60;;;;;;;10.49;63.98;100832.16;106334;1276;25338;-58
2023/02/19 02:36:12;;;;;;;19.30;13.50;;;;;;;10.56;64.04;100849.02;106068;1280;25352;-61
2023/02/19 02:38:41;;;;;;;20.50;15.20;;;;;;;10.62;64.00;100859.83;105955;1280;25415;-59
2023/02/19 02:41:10;;;;;;;21.50;16.00;;;;;;;10.68;63.80;100868.05;105930;1280;25641;-60
2023/02/19 02:43:39;;;;;;;21.10;16.20;;;;;;;10.70;63.65;100868.70;105950;1282;22838;-60
2023/02/19 02:46:12;;;;;;;22.30;16.70;;;;;;;10.71;63.76;100873.87;105677;1281;25390;-60
2023/02/19 02:48:54;;;;;;;24.60;16.50;;;;;;;10.75;63.83;100870.48;105926;1280;25339;-58
2023/02/19 02:51:30;;;;;;;20.30;15.20;;;;;;;10.82;63.90;100875.19;106048;1281;24258;-58
2023/02/19 02:56:59;;;;;;;19.00;14.30;;;;;;;10.91;63.73;100871.02;106535;1276;25379;-60
2023/02/19 02:59:32;;;;;;;18.80;14.00;;;;;;;10.94;63.82;100871.46;106497;1276;25382;-60
2023/02/19 03:02:09;;;;;;;18.10;14.60;;;;;;;10.98;63.91;100872.95;106100;1279;25588;-60
2023/02/19 03:07:39;;;;;;;32.40;16.30;;;;;;;11.05;63.51;100881.30;106216;1275;25425;-60
2023/02/19 03:10:09;;;;;;;41.40;17.70;;;;;;;11.07;63.22;100881.62;106319;1276;25349;-61
2023/02/19 03:21:07;;;;;;;29.00;13.80;;;;;;;11.08;62.82;100876.90;106847;1270;25542;-60
2023/02/19 03:26:26;;;;;;;24.60;14.50;;;;;;;11.05;62.75;100866.04;106795;1270;22648;-60
2023/02/19 03:31:44;;;;;;;29.40;14.30;;;;;;;11.04;62.83;100862.42;106832;1270;25376;-60
2023/02/19 03:34:16;;;;;;;21.30;12.20;;;;;;;11.02;62.64;100864.71;106668;1269;22639;-60
2023/02/19 03:36:47;;;;;;;16.90;11.30;;;;;;;11.01;62.37;100868.20;106438;1270;22555;-60
2023/02/19 03:39:16;;;;;;;13.40;10.30;;;;;;;10.98;62.38;100869.31;106737;1276;22540;-60
2023/02/19 03:41:54;;;;;;;16.10;10.00;;;;;;;10.96;62.42;100877.70;106638;1278;24274;-59
2023/02/19 03:44:28;;;;;;;11.80;10.30;;;;;;;10.95;62.32;100882.39;106892;1274;22642;-59
2023/02/19 03:47:09;;;;;;;12.50;10.70;;;;;;;10.93;62.20;100879.83;106911;1274;25351;-59
2023/02/19 03:49:48;;;;;;;14.60;10.60;;;;;;;10.89;62.27;100883.73;106764;1270;23903;-59
2023/02/19 03:52:25;;;;;;;24.90;11.30;;;;;;;10.87;62.37;100886.21;106833;1272;22543;-59
2023/02/19 03:55:07;;;;;;;12.10;9.50;;;;;;;10.84;62.56;100890.27;107038;1270;22573;-59
2023/02/19 03:57:52;;;;;;;11.90;9.40;;;;;;;10.83;62.60;100886.46;106866;1268;22729;-59
2023/02/19 04:00:31;;;;;;;14.10;10.30;;;;;;;10.83;62.63;100887.16;107065;1267;22602;-60
2023/02/19 04:03:20;;;;;;;12.60;10.50;;;;;;;10.82;62.54;100892.90;106994;1267;22582;-60
2023/02/19 04:05:54;;;;;;;15.00;11.10;;;;;;;10.82;62.72;100896.53;107173;1267;22527;-60
2023/02/19 04:08:23;;;;;;;14.20;9.70;;;;;;;10.82;62.76;100899.48;107039;1267;22538;-60
2023/02/19 04:10:57;;;;;;;14.80;10.00;;;;;;;10.83;62.73;100904.00;106875;1255;23568;-60
2023/02/19 04:13:31;;;;;;;13.80;10.70;;;;;;;10.82;62.57;100909.55;106906;1271;23867;-60
2023/02/19 04:16:07;;;;;;;14.00;10.40;;;;;;;10.82;62.54;100915.63;107097;1256;25419;-60
2023/02/19 04:18:42;;;;;;;14.40;10.70;;;;;;;10.81;62.45;100926.25;107020;1266;25411;-60
2023/02/19 04:21:10;;;;;;;13.30;10.20;;;;;;;10.77;62.40;100928.74;107046;1268;25331;-60
2023/02/19 04:23:41;;;;;;;14.80;10.80;;;;;;;10.75;62.42;100938.17;106893;1267;23223;-60
2023/02/19 04:26:10;;;;;;;15.70;11.70;;;;;;;10.73;62.25;100944.61;106896;1267;24476;-61
2023/02/19 04:28:39;;;;;;;14.40;11.00;;;;;;;10.70;62.16;100939.65;107081;1267;25466;-60
2023/02/19 04:31:07;;;;;;;13.00;10.60;;;;;;;10.66;62.07;100954.83;107028;1267;25368;-60
2023/02/19 04:33:37;;;;;;;12.60;10.80;;;;;;;10.62;62.07;100960.10;107096;1266;25442;-60
2023/02/19 04:36:06;;;;;;;12.90;10.20;;;;;;;10.59;62.02;100957.73;107180;1270;25564;-60
2023/02/19 04:38:35;;;;;;;13.10;10.50;;;;;;;10.56;62.03;100962.99;106851;1270;23870;-60
2023/02/19 04:41:04;;;;;;;15.20;11.40;;;;;;;10.53;62.03;100965.13;106102;1270;1002888;-60
2023/02/19 04:43:33;;;;;;;18.40;11.80;;;;;;;10.50;61.98;100975.92;107161;1267;25490;-60
2023/02/19 04:46:01;;;;;;;12.60;10.80;;;;;;;10.46;61.83;100989.36;106154;1267;1003793;-60
2023/02/19 04:48:32;;;;;;;14.80;10.60;;;;;;;10.41;61.92;100997.95;106902;1267;25325;-60
2023/02/19 04:51:05;;;;;;;12.20;10.20;;;;;;;10.37;61.94;101003.23;107164;1266;25350;-60
2023/02/19 04:53:38;;;;;;;12.40;11.00;;;;;;;10.33;62.16;100989.58;107145;1267;23220;-60
2023/02/19 04:56:11;;;;;;;12.20;10.80;;;;;;;10.31;62.30;100989.27;107037;1270;23033;-59
2023/02/19 04:58:40;;;;;;;13.60;11.40;;;;;;;10.31;62.19;100992.40;106864;1267;22528;-60
2023/02/19 05:01:08;;;;;;;13.40;11.10;;;;;;;10.28;62.18;100999.73;107131;1266;22548;-60
2023/02/19 05:03:38;;;;;;;13.30;10.50;;;;;;;10.26;62.15;101015.55;106874;1266;25529;-60
2023/02/19 05:06:09;;;;;;;12.40;10.20;;;;;;;10.23;62.34;101016.46;106875;1267;23305;-60
2023/02/19 05:08:37;;;;;;;14.20;10.40;;;;;;;10.22;62.25;101015.97;107002;1270;23129;-60
2023/02/19 05:11:06;;;;;;;12.10;10.80;;;;;;;10.21;62.12;101016.33;107068;1270;24222;-60
2023/02/19 05:13:37;;;;;;;13.10;10.80;;;;;;;10.20;62.17;101009.92;107121;1267;25344;-59
2023/02/19 05:16:12;;;;;;;13.60;10.70;;;;;;;10.19;61.95;101017.06;107114;1267;23378;-59
2023/02/19 05:18:42;;;;;;;12.80;10.70;;;;;;;10.16;61.96;101027.33;107096;1267;22534;-59
2023/02/19 05:21:11;;;;;;;11.40;10.20;;;;;;;10.14;62.09;101025.29;107169;1266;22529;-59
2023/02/19 05:23:40;;;;;;;12.40;10.70;;;;;;;10.13;62.12;101020.79;107168;1267;25456;-60
2023/02/19 05:26:17;;;;;;;13.10;10.70;;;;;;;10.13;62.16;101018.02;106821;1275;25359;-60
2023/02/19 05:28:46;;;;;;;11.30;10.10;;;;;;;10.12;61.93;101032.25;107090;1267;25362;-59
2023/02/19 05:31:15;;;;;;;12.30;10.20;;;;;;;10.10;62.16;101030.52;107151;1268;25325;-60
2023/02/19 05:33:47;;;;;;;12.00;10.40;;;;;;;10.10;62.34;101036.41;107084;1266;24731;-60
2023/02/19 05:39:40;;;;;;;10.70;9.60;;;;;;;10.13;62.11;101038.11;103075;1291;1003813;-60
2023/02/19 05:42:08;;;;;;;10.70;9.50;;;;;;;10.10;62.23;101039.36;105936;1283;26552;-60
2023/02/19 05:44:37;;;;;;;10.20;9.10;;;;;;;10.09;62.26;101045.25;105897;1282;22745;-60
2023/02/19 05:47:06;;;;;;;11.30;9.70;;;;;;;10.10;62.37;101058.27;105854;1285;25389;-59
2023/02/19 05:49:35;;;;;;;13.90;10.80;;;;;;;10.10;62.64;101059.65;105887;1285;25380;-59
2023/02/19 05:52:04;;;;;;;9.90;9.00;;;;;;;10.12;62.84;101063.27;105994;1282;25374;-60
2023/02/19 05:54:32;;;;;;;11.10;10.00;;;;;;;10.15;63.00;101068.95;106173;1280;207450;-60
2023/02/19 05:57:01;;;;;;;11.00;9.90;;;;;;;10.17;63.04;101067.00;106285;1282;24362;-60
2023/02/19 05:59:30;;;;;;;10.90;9.80;;;;;;;10.19;63.35;101064.03;105969;1283;25360;-59
2023/02/19 06:02:03;;;;;;;10.70;9.60;;;;;;;10.23;63.53;101073.52;105904;1283;25382;-60
2023/02/19 06:04:31;;;;;;;11.50;10.30;;;;;;;10.27;63.58;101082.10;105209;1279;1003015;-59
2023/02/19 06:07:01;;;;;;;11.60;10.30;;;;;;;10.31;63.54;101092.11;105647;1280;1003726;-60
2023/02/19 06:09:31;;;;;;;11.30;10.10;;;;;;;10.35;63.60;101093.94;106042;1282;25409;-60
2023/02/19 06:11:59;;;;;;;10.60;9.50;;;;;;;10.41;64.16;101090.20;106077;1279;25375;-59
2023/02/19 06:14:29;;;;;;;9.70;8.70;;;;;;;10.51;64.38;101092.13;106148;1279;25347;-59
2023/02/19 06:16:57;;;;;;;10.50;9.40;;;;;;;10.62;64.33;101102.17;106446;1276;23116;-59
2023/02/19 06:19:26;;;;;;;10.10;9.00;;;;;;;10.70;64.20;101105.86;106304;1279;25262;-59
2023/02/19 06:21:54;;;;;;;8.90;8.00;;;;;;;10.79;64.28;101102.25;106397;1276;25354;-59
2023/02/19 06:24:22;;;;;;;8.80;8.00;;;;;;;10.92;64.73;101113.64;106366;1263;25382;-59
2023/02/19 06:26:51;;;;;;;10.30;8.60;;;;;;;11.04;64.98;101128.36;106310;1279;25408;-59
2023/02/19 06:29:19;;;;;;;8.60;7.60;;;;;;;11.23;64.91;101130.63;106369;1278;25334;-59
2023/02/19 06:31:48;;;;;;;8.40;7.60;;;;;;;11.39;64.18;101133.95;106369;1277;25520;-59
2023/02/19 06:34:16;;;;;;;8.00;7.20;;;;;;;11.53;63.42;101131.42;106339;1263;25399;-59
2023/02/19 06:36:47;;;;;;;7.60;6.90;;;;;;;11.64;63.02;101140.42;106407;1276;25337;-59
2023/02/19 06:39:16;;;;;;;8.90;7.40;;;;;;;11.65;62.62;101145.27;106662;1257;23100;-59
2023/02/19 06:41:46;;;;;;;13.20;9.80;;;;;;;11.67;62.66;101142.98;106369;1276;25385;-59
2023/02/19 06:44:14;;;;;;;10.20;8.40;;;;;;;11.78;62.47;101148.69;107017;1268;25373;-59
2023/02/19 06:46:45;;;;;;;12.80;10.20;;;;;;;11.87;62.37;101151.64;107000;1268;25425;-59
2023/02/19 06:49:14;;;;;;;10.00;9.00;;;;;;;11.95;62.31;101154.92;106713;1276;25436;-59
2023/02/19 06:51:42;;;;;;;9.10;8.20;;;;;;;12.01;61.50;101153.42;107026;1269;24244;-59
2023/02/19 06:54:11;;;;;;;9.90;8.90;;;;;;;11.91;60.75;101157.45;106936;1272;25805;-59
2023/02/19 06:56:40;;;;;;;13.10;11.20;;;;;;;11.71;60.64;101164.80;107061;1269;22530;-59
2023/02/19 06:59:15;;;;;;;12.40;11.10;;;;;;;11.59;60.27;101173.71;107067;1270;25344;-59
2023/02/19 07:01:44;;;;;;;13.30;11.20;;;;;;;11.47;60.11;101180.52;106310;1269;1002864;-59
2023/02/19 07:04:12;;;;;;;12.40;11.10;;;;;;;11.40;60.17;101179.11;107012;1269;26580;-59
2023/02/19 07:06:41;;;;;;;12.50;11.20;;;;;;;11.40;60.02;101180.14;106801;1275;24221;-59
2023/02/19 07:09:10;;;;;;;11.00;9.90;;;;;;;11.34;59.94;101180.59;106995;1269;25340;-59
2023/02/19 07:11:38;;;;;;;11.10;10.00;;;;;;;11.34;59.38;101189.63;106134;1269;1003403;-59
2023/02/19 07:14:07;;;;;;;11.50;9.90;;;;;;;11.21;59.63;101199.94;106876;1270;23890;-59
2023/02/19 07:16:38;;;;;;;9.60;8.60;;;;;;;11.08;59.76;101193.40;106749;1270;25575;-59
2023/02/19 07:19:07;;;;;;;9.30;8.30;;;;;;;10.95;59.97;101206.97;107013;1269;22526;-59
2023/02/19 07:21:36;;;;;;;8.70;7.80;;;;;;;10.86;60.38;101214.23;106981;1269;25351;-59
2023/02/19 07:24:05;;;;;;;8.40;7.50;;;;;;;10.76;60.68;101225.15;106798;1270;25539;-59
2023/02/19 07:26:34;;;;;;;8.30;7.50;;;;;;;10.68;61.07;101231.19;106776;1268;25410;-60
2023/02/19 07:29:03;;;;;;;8.30;7.50;;;;;;;10.64;61.69;101233.48;107021;1269;25417;-60
2023/02/19 07:31:31;;;;;;;8.20;7.40;;;;;;;10.65;62.15;101241.09;106994;1270;22526;-60
2023/02/19 07:34:00;;;;;;;8.10;7.30;;;;;;;10.66;62.35;101241.97;107145;1270;22649;-60
2023/02/19 07:36:28;;;;;;;8.10;7.30;;;;;;;10.61;62.45;101243.95;106981;1270;25375;-59
2023/02/19 07:38:59;;;;;;;7.60;6.90;;;;;;;10.54;62.69;101248.55;107028;1269;25338;-59
2023/02/19 07:41:28;;;;;;;7.30;6.60;;;;;;;10.47;63.09;101257.66;107057;1270;25375;-59
2023/02/19 07:43:57;;;;;;;7.70;6.90;;;;;;;10.41;63.41;101250.45;106882;1272;24276;-59
2023/02/19 07:46:26;;;;;;;8.40;7.60;;;;;;;10.35;63.62;101241.89;107107;1269;25347;-58
2023/02/19 07:48:58;;;;;;;8.40;7.60;;;;;;;10.31;64.03;101237.25;106999;1268;25597;-59
2023/02/19 07:51:29;;;;;;;8.50;7.70;;;;;;;10.32;64.37;101245.20;106277;1271;1002916;-59
2023/02/19 07:54:00;;;;;;;8.40;7.50;;;;;;;10.34;64.74;101245.88;107058;1269;25425;-58
2023/02/19 07:56:29;;;;;;;10.10;9.10;;;;;;;10.36;64.82;101245.67;107013;1271;25369;-59
2023/02/19 07:58:59;;;;;;;9.20;8.30;;;;;;;10.35;65.02;101237.52;106249;1269;1003016;-60
2023/02/19 08:04:14;;;;;;;10.90;9.80;;;;;;;10.33;65.45;101231.48;106849;1268;23138;-59
2023/02/19 08:06:43;;;;;;;10.70;9.40;;;;;;;10.31;65.89;101238.80;106844;1275;24286;-58
2023/02/19 08:09:12;;;;;;;10.40;9.30;;;;;;;10.34;66.02;101250.90;106782;1272;25373;-58
2023/02/19 08:14:28;;;;;;;11.60;10.20;;;;;;;10.46;65.81;101250.39;106992;1270;25338;-59
2023/02/19 08:16:56;;;;;;;11.70;10.50;;;;;;;10.48;65.77;101248.98;106901;1268;23860;-59
2023/02/19 08:19:25;;;;;;;12.70;11.40;;;;;;;10.50;66.01;101249.30;106990;1272;25348;-59
2023/02/19 08:21:53;;;;;;;13.20;11.50;;;;;;;10.55;66.10;101257.21;107062;1269;25376;-60
2023/02/19 08:24:27;;;;;;;12.00;10.80;;;;;;;10.63;65.83;101266.12;107029;1270;25338;-59
2023/02/19 08:26:56;;;;;;;12.30;10.80;;;;;;;10.69;65.58;101272.63;106256;1268;1003619;-59
2023/02/19 08:29:25;;;;;;;12.40;10.90;;;;;;;10.72;65.37;101271.54;106975;1272;22539;-59
2023/02/19 08:31:53;;;;;;;11.50;10.20;;;;;;;10.75;65.17;101267.68;107029;1270;26617;-59
2023/02/19 08:34:21;;;;;;;13.80;12.40;;;;;;;10.75;65.02;101258.48;106983;1270;25421;-59
2023/02/19 08:36:51;;;;;;;11.90;10.60;;;;;;;10.74;64.94;101254.17;107034;1269;25348;-59
2023/02/19 08:39:20;;;;;;;11.00;9.80;;;;;;;10.77;65.13;101258.98;106701;1270;25376;-60
2023/02/19 08:41:50;;;;;;;10.60;9.50;;;;;;;10.83;65.08;101267.05;106891;1259;26510;-59
2023/02/19 08:44:18;;;;;;;11.30;10.10;;;;;;;10.87;64.81;101272.20;106309;1270;1002860;-59
2023/02/19 08:46:52;;;;;;;10.50;9.40;;;;;;;10.89;64.53;101273.72;107047;1269;25421;-59
2023/02/19 08:49:25;;;;;;;11.60;10.40;;;;;;;10.90;64.28;101279.60;106721;1275;22662;-59
2023/02/19 08:51:54;;;;;;;10.70;9.60;;;;;;;10.91;64.11;101286.02;107014;1272;26259;-58
2023/02/19 08:54:22;;;;;;;10.80;9.70;;;;;;;10.91;63.97;101298.16;107023;1269;25356;-58
2023/02/19 08:56:50;;;;;;;10.30;9.30;;;;;;;10.92;63.81;101306.48;106832;1270;25363;-58
2023/02/19 08:59:19;;;;;;;10.70;9.60;;;;;;;10.97;63.70;101304.34;106974;1272;25338;-60
2023/02/19 09:01:48;;;;;;;10.30;9.20;;;;;;;11.01;63.85;101300.09;106992;1270;25344;-59
2023/02/19 09:04:17;;;;;;;9.90;8.90;;;;;;;11.10;64.12;101297.36;107022;1269;25369;-59
2023/02/19 09:06:45;;;;;;;11.20;8.60;;;;;;;11.22;63.90;101295.43;106868;1274;25425;-59
2023/02/19 09:09:14;;;;;;;9.30;7.70;;;;;;;11.31;63.57;101291.13;106947;1272;22521;-59
2023/02/19 09:11:43;;;;;;;7.60;6.70;;;;;;;11.41;63.02;101279.14;106538;1276;25366;-59
2023/02/19 09:14:11;;;;;;;7.80;7.00;;;;;;;11.46;62.61;101267.77;106794;1272;25448;-59
2023/02/19 09:16:39;;;;;;;7.00;6.30;;;;;;;11.54;62.44;101274.42;106695;1269;25328;-59
2023/02/19 09:19:08;;;;;;;8.40;6.60;;;;;;;11.63;62.22;101277.04;106639;1275;25436;-59
2023/02/19 09:21:36;;;;;;;7.30;6.60;;;;;;;11.71;61.94;101271.34;106670;1272;25363;-60
2023/02/19 09:24:07;;;;;;;8.60;7.40;;;;;;;11.78;61.62;101269.66;106755;1270;25328;-60
2023/02/19 09:26:35;;;;;;;8.20;7.40;;;;;;;11.86;61.28;101271.25;106843;1268;23843;-59
2023/02/19 09:29:05;;;;;;;7.90;7.10;;;;;;;11.91;61.07;101278.63;106727;1268;22527;-59
2023/02/19 09:31:34;;;;;;;7.60;6.80;;;;;;;11.95;60.86;101282.38;106798;1268;22757;-59
2023/02/19 09:34:02;;;;;;;8.00;7.10;;;;;;;11.98;60.68;101285.27;107036;1270;25369;-60
2023/02/19 09:36:32;;;;;;;10.60;7.40;;;;;;;12.04;60.40;101284.97;106840;1270;25477;-59
2023/02/19 09:39:01;;;;;;;9.10;7.10;;;;;;;12.09;60.24;101274.96;106999;1270;24251;-59
2023/02/19 09:41:31;;;;;;;7.80;7.00;;;;;;;12.13;60.13;101268.46;106999;1270;25335;-59
2023/02/19 09:44:01;;;;;;;7.90;7.20;;;;;;;12.17;60.00;101269.06;106928;1269;25327;-59
2023/02/19 09:46:30;;;;;;;7.80;6.60;;;;;;;12.20;59.87;101268.48;106862;1270;22546;-59
2023/02/19 09:49:05;;;;;;;7.10;6.40;;;;;;;12.26;59.91;101261.42;106987;1272;25349;-59
2023/02/19 09:51:35;;;;;;;8.90;6.60;;;;;;;12.34;59.99;101264.37;107060;1272;22541;-60
2023/02/19 09:54:05;;;;;;;7.70;6.90;;;;;;;12.42;59.87;101271.66;107035;1270;25362;-59
2023/02/19 09:56:34;;;;;;;7.90;6.70;;;;;;;12.50;59.86;101269.23;106922;1270;22527;-60
2023/02/19 09:59:02;;;;;;;7.90;7.10;;;;;;;12.62;59.84;101278.73;107049;1269;25347;-60
2023/02/19 10:01:32;;;;;;;6.90;6.20;;;;;;;12.73;59.44;101279.00;106818;1270;25412;-59
2023/02/19 10:04:01;;;;;;;6.80;6.10;;;;;;;12.80;59.25;101279.02;107023;1273;22942;-59
2023/02/19 10:06:30;;;;;;;6.70;6.00;;;;;;;12.86;58.85;101282.02;106850;1274;24244;-60
2023/02/19 10:09:13;;;;;;;7.50;6.60;;;;;;;12.93;58.68;101290.03;107054;1272;25347;-60
2023/02/19 10:11:42;;;;;;;7.10;6.40;;;;;;;13.01;58.39;101281.14;107097;1269;24245;-60
2023/02/19 10:14:21;;;;;;;6.70;6.10;;;;;;;13.06;57.85;101279.48;107131;1256;25366;-60
2023/02/19 10:16:49;;;;;;;7.10;6.50;;;;;;;13.06;57.72;101281.92;106268;1269;1003332;-60
2023/02/19 10:19:18;;;;;;;6.80;6.10;;;;;;;13.09;57.90;101283.61;106779;1270;22538;-59
2023/02/19 10:21:46;;;;;;;7.10;6.00;;;;;;;13.18;57.98;101281.83;107061;1270;25537;-59
2023/02/19 10:24:33;;;;;;;6.80;6.20;;;;;;;13.25;57.45;101277.11;106778;1270;24309;-59
2023/02/19 10:27:13;;;;;;;7.10;6.20;;;;;;;13.31;57.15;101260.24;106970;1269;22604;-59
2023/02/19 10:29:45;;;;;;;7.20;6.40;;;;;;;13.36;56.39;101257.51;106970;1270;25356;-59
2023/02/19 10:32:17;;;;;;;6.50;5.80;;;;;;;13.32;55.82;101254.12;107044;1270;22524;-59
2023/02/19 10:34:46;;;;;;;5.60;5.00;;;;;;;13.28;55.11;101251.61;106916;1269;22527;-59
2023/02/19 10:37:17;;;;;;;8.10;5.50;;;;;;;13.26;54.81;101251.67;106935;1270;24243;-60
2023/02/19 10:39:46;;;;;;;5.40;4.60;;;;;;;13.21;54.72;101247.95;107005;1268;24902;-59
2023/02/19 10:42:19;;;;;;;5.10;4.60;;;;;;;13.20;54.67;101238.93;106819;1270;22520;-59
2023/02/19 10:44:54;;;;;;;4.50;4.10;;;;;;;13.20;54.57;101238.58;106711;1269;22538;-60
2023/02/19 10:47:24;;;;;;;4.20;3.10;;;;;;;13.19;53.51;101231.82;106789;1269;22541;-60
2023/02/19 10:49:55;;;;;;;2.90;2.60;;;;;;;13.15;52.30;101214.66;106923;1270;22525;-59
2023/02/19 10:52:28;;;;;;;3.40;2.00;;;;;;;13.12;51.45;101203.96;106852;1270;22522;-59
2023/02/19 10:55:33;;;;;;;2.80;2.30;;;;;;;13.09;50.47;101196.70;106986;1269;24084;-59
2023/02/19 10:58:26;;;;;;;2.80;2.20;;;;;;;13.07;49.82;101197.44;106942;1270;23300;-60
2023/02/19 11:01:18;;;;;;;2.30;1.80;;;;;;;13.02;49.91;101195.26;107100;1269;22940;-59
2023/02/19 11:03:48;;;;;;;;;;;;;;;12.99;49.81;101193.23;106346;1269;1002944;-59
2023/02/19 11:06:21;;;;;;;2.20;2.00;;;;;;;12.93;49.46;101189.73;107053;1268;25411;-59
2023/02/19 11:08:50;;;;;;;3.50;2.30;;;;;;;12.82;49.59;101191.91;106860;1270;22615;-59
2023/02/19 11:11:25;;;;;;;2.40;2.20;;;;;;;12.76;49.71;101196.94;106971;1272;24937;-59
2023/02/19 11:13:55;;;;;;;2.70;2.10;;;;;;;12.71;50.09;101201.94;107157;1270;25369;-59
2023/02/19 11:16:24;;;;;;;2.70;2.30;;;;;;;12.70;50.44;101201.79;106823;1270;25341;-60
2023/02/19 11:18:55;;;;;;;2.40;2.00;;;;;;;12.70;50.58;101201.79;106533;1276;22578;-59
2023/02/19 11:21:28;;;;;;;2.60;2.40;;;;;;;12.71;50.56;101208.54;107059;1270;22555;-59
2023/02/19 11:23:56;;;;;;;6.00;2.40;;;;;;;12.77;50.61;101205.45;106761;1270;24226;-59
2023/02/19 11:26:25;;;;;;;2.50;2.20;;;;;;;12.83;50.32;101202.17;106839;1269;23357;-59
2023/02/19 11:28:59;;;;;;;2.60;2.30;;;;;;;12.88;49.95;101199.27;106091;1270;1003683;-61
2023/02/19 11:31:30;;;;;;;2.40;2.10;;;;;;;12.92;49.74;101202.30;106944;1272;22539;-59
2023/02/19 11:34:00;;;;;;;2.50;2.20;;;;;;;12.96;49.56;101201.48;107014;1270;22534;-59
2023/02/19 11:36:33;;;;;;;2.60;2.40;;;;;;;13.00;49.38;101201.92;107062;1269;25295;-59
2023/02/19 11:39:18;;;;;;;2.40;2.10;;;;;;;13.02;49.00;101189.52;107054;1270;25365;-60
2023/02/19 11:41:47;;;;;;;4.20;2.80;;;;;;;12.99;49.22;101173.39;107107;1270;22532;-59
2023/02/19 11:44:29;;;;;;;2.70;2.40;;;;;;;13.01;49.39;101167.92;107067;1269;25629;-59
2023/02/19 11:47:16;;;;;;;2.90;2.50;;;;;;;13.07;49.17;101164.34;107092;1270;25338;-59
2023/02/19 11:49:57;;;;;;;3.70;2.30;;;;;;;13.11;48.83;101157.11;106814;1270;25337;-59
2023/02/19 11:52:41;;;;;;;2.30;1.80;;;;;;;13.14;48.65;101160.69;106014;1275;1003728;-59
2023/02/19 11:55:16;;;;;;;1.90;1.80;;;;;;;13.15;47.95;101150.56;106999;1269;25411;-59
2023/02/19 11:57:47;;;;;;;1.80;1.70;;;;;;;13.17;48.11;101151.89;107122;1270;22625;-59
2023/02/19 12:00:31;;;;;;;2.40;1.40;;;;;;;13.21;47.70;101149.89;107052;1269;25297;-59